Time;durP1;ratioP1;P1;durP2;ratioP2;P2;SDS_P1;SDS_P2;PMS_P1;PMS_P2;Temp;Humidity;BMP_temperature;BMP_pressure;BME280_temperature;BME280_humidity;BME280_pressure;Samples;Min_cycle;Max_cycle;Signal;HPM_P1;HPM_P2
2023/06/08 00:01:44;;;;;;;390.92;372.45;;;11.70;99.90;;;;;;5088152;27;20076;-77
2023/06/08 00:04:10;;;;;;;406.60;386.90;;;11.70;99.90;;;;;;5076911;27;20409;-77
2023/06/08 00:06:37;;;;;;;414.80;394.95;;;11.70;99.90;;;;;;5073560;27;20053;-77
2023/06/08 00:09:05;;;;;;;400.55;381.77;;;11.70;99.90;;;;;;5065627;28;20152;-77
2023/06/08 00:11:34;;;;;;;399.88;380.85;;;11.70;99.90;;;;;;5079902;28;20065;-68
2023/06/08 00:14:00;;;;;;;408.33;389.25;;;11.70;99.90;;;;;;5096600;28;20134;-68
2023/06/08 00:16:29;;;;;;;482.20;456.65;;;11.70;99.90;;;;;;5066528;28;20046;-69
2023/06/08 00:18:56;;;;;;;433.77;412.75;;;11.70;99.90;;;;;;5090830;28;20060;-68
2023/06/08 00:21:23;;;;;;;418.35;398.13;;;11.70;99.90;;;;;;5086374;28;20048;-69
2023/06/08 00:23:50;;;;;;;390.98;372.55;;;11.70;99.90;;;;;;5094765;28;20039;-69
2023/06/08 00:26:16;;;;;;;390.25;371.90;;;11.60;99.90;;;;;;5080283;28;20043;-69
2023/06/08 00:28:41;;;;;;;406.58;387.55;;;11.50;99.90;;;;;;5067877;28;20432;-69
2023/06/08 00:31:07;;;;;;;393.42;374.35;;;11.50;99.90;;;;;;5088395;28;20050;-68
2023/06/08 00:33:34;;;;;;;411.08;391.33;;;11.50;99.90;;;;;;5093094;27;20047;-68
2023/06/08 00:36:02;;;;;;;412.88;393.13;;;11.50;99.90;;;;;;5071446;28;20526;-68
2023/06/08 00:38:28;;;;;;;405.90;386.27;;;11.50;99.90;;;;;;5073119;28;20047;-68
2023/06/08 00:40:54;;;;;;;408.15;388.25;;;11.50;99.90;;;;;;5072020;28;20388;-69
2023/06/08 00:43:19;;;;;;;425.83;405.23;;;11.50;99.90;;;;;;5068028;28;20396;-69
2023/06/08 00:45:45;;;;;;;410.92;391.05;;;11.50;99.90;;;;;;5063078;28;20047;-69
2023/06/08 00:48:11;;;;;;;402.67;382.98;;;11.50;99.90;;;;;;5073573;28;20040;-69
2023/06/08 00:50:38;;;;;;;404.88;384.85;;;11.60;99.90;;;;;;5086468;28;20055;-69
2023/06/08 00:53:04;;;;;;;422.35;401.95;;;11.50;99.90;;;;;;5089149;28;20040;-68
2023/06/08 00:55:33;;;;;;;415.92;395.90;;;11.60;99.90;;;;;;5084506;28;20484;-68
2023/06/08 00:58:00;;;;;;;418.65;398.42;;;11.60;99.90;;;;;;5077935;27;20335;-68
2023/06/08 01:00:27;;;;;;;417.50;397.55;;;11.60;99.90;;;;;;5080624;28;20082;-68
2023/06/08 01:02:55;;;;;;;411.45;391.77;;;11.60;99.90;;;;;;5071330;28;20046;-68
2023/06/08 01:05:22;;;;;;;408.88;389.17;;;11.60;99.90;;;;;;5081776;28;20539;-69
2023/06/08 01:08:08;;;;;;;416.00;395.92;;;11.60;99.90;;;;;;5088101;28;20049;-69
2023/06/08 01:10:54;;;;;;;399.25;380.00;;;11.60;99.90;;;;;;5062334;28;20254;-69
2023/06/08 01:13:27;;;;;;;353.27;336.00;;;11.60;99.90;;;;;;5085232;28;20122;-69
2023/06/08 01:16:04;;;;;;;401.70;382.30;;;11.60;99.90;;;;;;5084946;28;20036;-68
2023/06/08 01:18:33;;;;;;;427.10;406.17;;;11.60;99.90;;;;;;5089627;28;20052;-69
2023/06/08 01:21:24;;;;;;;401.80;382.80;;;11.60;99.90;;;;;;5083041;28;20047;-69
2023/06/08 01:24:03;;;;;;;400.40;381.13;;;11.50;99.90;;;;;;5069902;28;20046;-68
2023/06/08 01:26:31;;;;;;;400.23;380.77;;;11.50;99.90;;;;;;5073187;28;20039;-69
2023/06/08 01:28:57;;;;;;;392.27;373.20;;;11.50;99.90;;;;;;5064945;28;20052;-69
2023/06/08 01:31:23;;;;;;;408.45;388.55;;;11.60;99.90;;;;;;5056084;28;20395;-69
2023/06/08 01:33:49;;;;;;;406.33;386.17;;;11.50;99.90;;;;;;5071970;28;20051;-68
2023/06/08 01:36:41;;;;;;;373.80;355.65;;;11.50;99.90;;;;;;5074243;28;20126;-69
2023/06/08 01:39:19;;;;;;;392.83;373.98;;;11.50;99.90;;;;;;5039786;28;20439;-68
2023/06/08 01:41:50;;;;;;;406.45;387.20;;;11.50;99.90;;;;;;5037879;28;20055;-68
2023/06/08 01:44:20;;;;;;;408.70;388.80;;;11.50;99.90;;;;;;5079356;28;20439;-68
2023/06/08 01:46:54;;;;;;;400.13;381.00;;;11.50;99.90;;;;;;5041308;28;20119;-68
2023/06/08 01:49:20;;;;;;;395.05;376.52;;;11.50;99.90;;;;;;5100655;28;20043;-68
2023/06/08 01:51:47;;;;;;;399.73;380.02;;;11.50;99.90;;;;;;5049531;28;20044;-69
2023/06/08 01:54:13;;;;;;;407.45;388.15;;;11.50;99.90;;;;;;5047164;28;20139;-69
2023/06/08 01:56:39;;;;;;;396.98;377.90;;;11.50;99.90;;;;;;5051063;28;20459;-68
2023/06/08 01:59:05;;;;;;;377.23;359.42;;;11.50;99.90;;;;;;5041927;28;20040;-68
2023/06/08 02:01:30;;;;;;;372.42;354.92;;;11.50;99.90;;;;;;5052748;28;20407;-69
2023/06/08 02:03:56;;;;;;;378.95;361.25;;;11.50;99.90;;;;;;5071281;28;20090;-68
2023/06/08 02:06:22;;;;;;;378.67;361.33;;;11.50;99.90;;;;;;5046552;28;20700;-68
2023/06/08 02:08:47;;;;;;;367.60;350.77;;;11.50;99.90;;;;;;5054955;28;20043;-68
2023/06/08 02:11:13;;;;;;;367.77;350.92;;;11.50;99.90;;;;;;5066821;28;20151;-69
2023/06/08 02:13:43;;;;;;;367.02;350.13;;;11.50;99.90;;;;;;5098020;28;20366;-68
2023/06/08 02:16:09;;;;;;;368.02;350.58;;;11.50;99.90;;;;;;5061402;28;20070;-69
2023/06/08 02:18:39;;;;;;;364.38;347.40;;;11.50;99.90;;;;;;5040205;28;20488;-68
2023/06/08 02:21:05;;;;;;;367.17;350.15;;;11.50;99.90;;;;;;5050428;28;20041;-68
2023/06/08 02:23:30;;;;;;;378.77;360.75;;;11.50;99.90;;;;;;5055376;28;20966;-69
2023/06/08 02:25:56;;;;;;;362.42;345.67;;;11.60;99.90;;;;;;5062860;28;20696;-69
2023/06/08 02:28:22;;;;;;;371.45;354.23;;;11.60;99.90;;;;;;5092230;28;20396;-68
2023/06/08 02:30:47;;;;;;;393.42;374.63;;;11.60;99.90;;;;;;5054548;28;20058;-68
2023/06/08 02:33:16;;;;;;;365.55;347.83;;;11.60;99.90;;;;;;5052918;28;20467;-68
2023/06/08 02:35:42;;;;;;;356.13;339.33;;;11.60;99.90;;;;;;5062410;28;20072;-68
2023/06/08 02:38:08;;;;;;;361.75;344.55;;;11.60;99.90;;;;;;5071404;28;20683;-69
2023/06/08 02:40:33;;;;;;;356.77;340.20;;;11.60;99.90;;;;;;5068793;28;20044;-69
2023/06/08 02:42:59;;;;;;;365.63;348.65;;;11.60;99.90;;;;;;5069628;28;20109;-69
2023/06/08 02:45:26;;;;;;;375.02;357.45;;;11.60;99.90;;;;;;5066155;28;20194;-69
2023/06/08 02:47:52;;;;;;;368.05;350.45;;;11.60;99.90;;;;;;5073403;28;20047;-69
2023/06/08 02:50:18;;;;;;;350.13;333.73;;;11.60;99.90;;;;;;5062510;28;20041;-69
2023/06/08 02:52:43;;;;;;;355.58;338.70;;;11.60;99.90;;;;;;5071867;28;20424;-68
2023/06/08 02:55:09;;;;;;;360.52;343.80;;;11.60;99.90;;;;;;5045041;28;20035;-69
2023/06/08 02:57:36;;;;;;;345.77;329.00;;;11.60;99.90;;;;;;5070939;28;20036;-68
2023/06/08 03:00:07;;;;;;;354.67;338.10;;;11.70;99.90;;;;;;5052592;28;20036;-68
2023/06/08 03:02:33;;;;;;;345.80;329.58;;;11.70;99.90;;;;;;5068140;28;20069;-69
2023/06/08 03:05:03;;;;;;;352.23;335.90;;;11.70;99.90;;;;;;5071293;28;20032;-69
2023/06/08 03:07:30;;;;;;;344.60;328.70;;;11.70;99.90;;;;;;5058641;28;20435;-68
2023/06/08 03:09:55;;;;;;;343.27;327.40;;;11.70;99.90;;;;;;5042940;28;20044;-68
2023/06/08 03:12:21;;;;;;;342.90;327.13;;;11.70;99.90;;;;;;5056677;28;20047;-69
2023/06/08 03:14:48;;;;;;;344.73;328.38;;;11.70;99.90;;;;;;5071017;28;20028;-68
2023/06/08 03:17:17;;;;;;;340.55;325.05;;;11.70;99.90;;;;;;5049963;28;20055;-69
2023/06/08 03:19:46;;;;;;;342.98;326.73;;;11.70;99.90;;;;;;5046195;28;20063;-69
2023/06/08 03:22:11;;;;;;;341.85;325.98;;;11.70;99.90;;;;;;5071855;28;20044;-68
2023/06/08 03:24:37;;;;;;;344.55;328.73;;;11.70;99.90;;;;;;5066113;28;20039;-69
2023/06/08 03:27:05;;;;;;;315.80;301.50;;;11.80;99.90;;;;;;5063065;28;20048;-68
2023/06/08 03:29:31;;;;;;;347.67;331.08;;;11.70;99.90;;;;;;5070412;28;20071;-69
2023/06/08 03:31:57;;;;;;;323.88;308.35;;;11.80;99.90;;;;;;5054417;28;20043;-68
2023/06/08 03:34:25;;;;;;;316.83;302.73;;;11.80;99.90;;;;;;5067116;28;20041;-69
2023/06/08 03:36:54;;;;;;;302.27;288.52;;;11.80;99.90;;;;;;5074449;28;20040;-70
2023/06/08 03:39:21;;;;;;;315.65;301.33;;;11.80;99.90;;;;;;5071561;28;20039;-68
2023/06/08 03:41:46;;;;;;;317.90;303.70;;;11.80;99.90;;;;;;5067751;28;20117;-68
2023/06/08 03:44:12;;;;;;;335.05;319.63;;;11.80;99.90;;;;;;5045128;28;20500;-69
2023/06/08 03:46:38;;;;;;;335.30;319.83;;;11.80;99.90;;;;;;5070494;28;20086;-69
2023/06/08 03:49:04;;;;;;;313.77;299.27;;;11.80;99.90;;;;;;5052498;28;20071;-69
2023/06/08 03:51:30;;;;;;;320.60;306.15;;;11.80;99.90;;;;;;5070377;28;20500;-69
2023/06/08 03:53:55;;;;;;;325.92;311.13;;;11.80;99.90;;;;;;5048470;28;20040;-68
2023/06/08 03:56:21;;;;;;;327.73;312.85;;;11.80;99.90;;;;;;5055729;28;20035;-68
2023/06/08 03:58:48;;;;;;;324.25;309.35;;;11.80;99.90;;;;;;5045529;28;20471;-68
2023/06/08 04:01:14;;;;;;;326.27;311.58;;;11.80;99.90;;;;;;5046086;28;20040;-69
2023/06/08 04:03:41;;;;;;;334.88;319.35;;;11.80;99.90;;;;;;5052098;28;20039;-69
2023/06/08 04:06:08;;;;;;;324.88;310.05;;;11.80;99.90;;;;;;5043208;28;20058;-68
2023/06/08 04:08:40;;;;;;;318.52;304.13;;;11.90;99.90;;;;;;5065050;28;20122;-68
2023/06/08 04:11:09;;;;;;;325.08;310.73;;;11.90;99.90;;;;;;5053361;28;20147;-68
2023/06/08 04:13:36;;;;;;;311.75;297.88;;;11.90;99.90;;;;;;5070432;28;20048;-69
2023/06/08 04:16:09;;;;;;;320.17;305.95;;;11.90;99.90;;;;;;5051404;28;20089;-68
2023/06/08 04:18:39;;;;;;;328.92;313.92;;;12.00;99.90;;;;;;5057199;28;20593;-69
2023/06/08 04:21:06;;;;;;;320.77;306.55;;;12.00;99.90;;;;;;5052820;28;20411;-69
2023/06/08 04:23:35;;;;;;;310.67;295.73;;;12.00;99.90;;;;;;5051954;28;20048;-69
2023/06/08 04:26:06;;;;;;;340.80;325.05;;;12.10;99.90;;;;;;5069300;28;20466;-69
2023/06/08 04:28:33;;;;;;;332.27;316.88;;;12.10;99.90;;;;;;5047853;28;21114;-68
2023/06/08 04:30:59;;;;;;;339.40;323.98;;;12.10;99.90;;;;;;5071507;28;20508;-69
2023/06/08 04:33:28;;;;;;;343.20;327.15;;;12.10;99.90;;;;;;5053920;28;20126;-69
2023/06/08 04:35:55;;;;;;;365.15;347.98;;;12.20;99.90;;;;;;5066153;28;20075;-69
2023/06/08 04:38:21;;;;;;;354.88;338.38;;;12.20;99.90;;;;;;5066109;28;20118;-69
2023/06/08 04:40:48;;;;;;;343.75;327.70;;;12.20;99.90;;;;;;5070514;28;20040;-68
2023/06/08 04:43:15;;;;;;;353.88;337.10;;;12.20;99.90;;;;;;5064988;28;20050;-69
2023/06/08 04:45:44;;;;;;;371.00;353.17;;;12.30;99.90;;;;;;5058195;28;20585;-69
2023/06/08 04:48:10;;;;;;;363.55;346.10;;;12.30;99.90;;;;;;5070600;28;20134;-69
2023/06/08 04:50:37;;;;;;;383.20;364.70;;;12.30;99.90;;;;;;5045263;28;20035;-69
2023/06/08 04:53:05;;;;;;;382.95;364.77;;;12.40;99.90;;;;;;5044887;28;20098;-68
2023/06/08 04:55:30;;;;;;;414.17;393.80;;;12.50;99.90;;;;;;5067565;28;20143;-69
2023/06/08 04:57:56;;;;;;;443.15;421.73;;;12.50;99.90;;;;;;5069017;28;20513;-69
2023/06/08 05:00:22;;;;;;;426.00;404.92;;;12.50;99.90;;;;;;5061793;28;20048;-69
2023/06/08 05:02:48;;;;;;;449.38;427.48;;;12.50;99.90;;;;;;5051406;28;20157;-68
2023/06/08 05:05:14;;;;;;;439.23;417.13;;;12.60;99.90;;;;;;5053497;28;20392;-69
2023/06/08 05:07:42;;;;;;;469.67;445.92;;;12.60;99.90;;;;;;5072147;28;20031;-69
2023/06/08 05:10:08;;;;;;;464.48;441.25;;;12.70;99.90;;;;;;5060274;28;20177;-69
2023/06/08 05:12:33;;;;;;;439.40;417.52;;;12.70;99.90;;;;;;5068407;28;20130;-68
2023/06/08 05:15:00;;;;;;;474.48;450.88;;;12.80;99.90;;;;;;5052282;28;20044;-69
2023/06/08 05:17:26;;;;;;;496.88;471.85;;;12.90;99.90;;;;;;5055412;28;21036;-68
2023/06/08 05:19:51;;;;;;;539.38;511.27;;;13.00;99.90;;;;;;5056512;28;20039;-69
2023/06/08 05:22:18;;;;;;;534.50;507.15;;;13.10;99.90;;;;;;5068445;28;20044;-69
2023/06/08 05:24:43;;;;;;;517.10;490.95;;;13.10;99.90;;;;;;5051967;28;20055;-69
2023/06/08 05:27:09;;;;;;;472.73;449.10;;;13.20;99.90;;;;;;5049344;28;20047;-69
2023/06/08 05:29:35;;;;;;;512.95;487.05;;;13.20;99.90;;;;;;5051764;28;20079;-69
2023/06/08 05:32:01;;;;;;;541.83;514.00;;;13.30;99.90;;;;;;5050594;28;20084;-69
2023/06/08 05:34:27;;;;;;;555.63;526.53;;;13.30;99.90;;;;;;5051157;28;20043;-69
2023/06/08 05:36:56;;;;;;;519.40;492.42;;;13.30;99.90;;;;;;5067572;28;20146;-69
2023/06/08 05:39:22;;;;;;;538.28;510.30;;;13.30;99.90;;;;;;5053371;28;20059;-69
2023/06/08 05:41:48;;;;;;;489.27;464.48;;;13.30;99.90;;;;;;5043418;28;20477;-69
2023/06/08 05:44:13;;;;;;;479.60;455.48;;;13.30;99.90;;;;;;5062356;28;20126;-69
2023/06/08 05:46:39;;;;;;;531.13;503.92;;;13.30;99.90;;;;;;5051964;28;20039;-69
2023/06/08 05:49:05;;;;;;;485.25;460.77;;;13.40;99.90;;;;;;5064087;28;20040;-69
2023/06/08 05:51:31;;;;;;;483.58;459.08;;;13.40;99.90;;;;;;5054496;28;20040;-69
2023/06/08 05:53:57;;;;;;;501.75;475.95;;;13.50;99.90;;;;;;5055866;28;20085;-69
2023/06/08 05:56:22;;;;;;;483.25;458.65;;;13.50;99.90;;;;;;5072216;28;20451;-69
2023/06/08 05:58:48;;;;;;;406.10;386.13;;;13.60;99.90;;;;;;5069742;28;20047;-69
2023/06/08 06:01:14;;;;;;;450.77;428.75;;;13.70;99.90;;;;;;5048854;28;21376;-69
2023/06/08 06:03:40;;;;;;;378.80;360.20;;;13.70;99.90;;;;;;5050238;28;20385;-69
2023/06/08 06:06:06;;;;;;;408.88;389.27;;;13.80;99.90;;;;;;5067756;28;20407;-69
2023/06/08 06:08:32;;;;;;;404.52;384.92;;;13.90;99.90;;;;;;5070485;28;20503;-69
2023/06/08 06:10:58;;;;;;;385.92;367.60;;;14.10;99.90;;;;;;5063416;28;20046;-69
2023/06/08 06:13:24;;;;;;;376.50;358.15;;;14.40;99.90;;;;;;5063080;28;20073;-69
2023/06/08 06:15:50;;;;;;;344.25;328.13;;;14.60;99.90;;;;;;5063783;28;20068;-69
2023/06/08 06:18:16;;;;;;;329.08;314.00;;;14.80;99.90;;;;;;5069289;28;20499;-69
2023/06/08 06:20:42;;;;;;;297.88;284.05;;;14.90;99.90;;;;;;5065161;28;20443;-70
2023/06/08 06:23:08;;;;;;;216.23;206.20;;;15.10;99.90;;;;;;5072669;28;20043;-69
2023/06/08 06:25:35;;;;;;;185.60;177.00;;;15.60;99.90;;;;;;5061436;28;20035;-70
2023/06/08 06:28:04;;;;;;;199.00;189.85;;;16.50;99.90;;;;;;5072043;27;20484;-70
2023/06/08 06:30:30;;;;;;;241.80;231.05;;;16.70;99.90;;;;;;5069094;28;20055;-69
2023/06/08 06:32:56;;;;;;;219.38;208.93;;;16.50;99.90;;;;;;5073412;27;20517;-70
2023/06/08 06:35:21;;;;;;;207.48;197.95;;;16.40;99.90;;;;;;5078274;28;20077;-69
2023/06/08 06:37:47;;;;;;;196.48;187.32;;;17.00;99.90;;;;;;5079944;27;20100;-69
2023/06/08 06:40:13;;;;;;;183.75;175.10;;;17.50;99.90;;;;;;5065113;28;20581;-70
2023/06/08 06:42:39;;;;;;;162.02;154.25;;;18.30;99.90;;;;;;5075934;27;20042;-70
2023/06/08 06:45:05;;;;;;;100.28;95.03;;;18.90;99.90;;;;;;5093823;27;20078;-69
2023/06/08 06:47:31;;;;;;;65.88;62.35;;;19.50;99.90;;;;;;5094142;28;20051;-69
2023/06/08 06:49:56;;;;;;;78.88;74.75;;;19.70;99.90;;;;;;5075233;28;20503;-70
2023/06/08 06:52:22;;;;;;;65.65;61.92;;;19.90;99.90;;;;;;5071557;27;20047;-70
2023/06/08 06:54:48;;;;;;;64.32;60.47;;;20.10;99.90;;;;;;5065707;28;20040;-70
2023/06/08 06:57:13;;;;;;;55.42;51.65;;;20.10;99.90;;;;;;5077299;28;20043;-69
2023/06/08 06:59:40;;;;;;;64.70;61.03;;;20.20;99.90;;;;;;5087626;28;20035;-69
2023/06/08 07:02:07;;;;;;;175.63;167.60;;;20.10;99.90;;;;;;5109249;28;20043;-70
2023/06/08 07:04:32;;;;;;;151.02;143.65;;;20.30;99.90;;;;;;5086095;28;20047;-70
2023/06/08 07:06:58;;;;;;;104.22;99.00;;;20.30;99.90;;;;;;5108184;28;20089;-70
2023/06/08 07:09:24;;;;;;;268.67;256.50;;;20.60;99.90;;;;;;5071151;28;20126;-70
2023/06/08 07:11:51;;;;;;;223.27;212.70;;;20.80;99.90;;;;;;5090474;28;20054;-70
2023/06/08 07:14:17;;;;;;;337.90;321.58;;;20.80;99.90;;;;;;5068586;28;20043;-69
2023/06/08 07:16:42;;;;;;;355.38;338.35;;;21.00;99.90;;;;;;5092035;28;20078;-72
2023/06/08 07:19:08;;;;;;;346.58;330.08;;;21.20;99.90;;;;;;5088987;28;20544;-69
2023/06/08 07:21:38;;;;;;;370.58;352.52;;;21.10;99.90;;;;;;5091632;28;20122;-69
2023/06/08 07:24:06;;;;;;;393.75;374.45;;;21.10;99.90;;;;;;5086539;28;20058;-70
2023/06/08 07:26:31;;;;;;;388.55;369.65;;;20.90;99.90;;;;;;5082218;28;20063;-69
2023/06/08 07:29:01;;;;;;;404.70;385.05;;;21.10;99.90;;;;;;5081917;28;20142;-70
2023/06/08 07:31:27;;;;;;;378.77;359.83;;;21.00;99.90;;;;;;5049707;28;20048;-70
2023/06/08 07:33:55;;;;;;;379.98;361.58;;;21.00;99.90;;;;;;5053878;28;20042;-70
2023/06/08 07:36:22;;;;;;;397.08;377.23;;;20.90;99.90;;;;;;5072485;28;20066;-70
2023/06/08 07:38:51;;;;;;;395.30;375.88;;;21.10;99.90;;;;;;5053101;28;20423;-70
2023/06/08 07:41:17;;;;;;;374.05;355.10;;;21.10;99.90;;;;;;5070714;28;20106;-69
2023/06/08 07:43:43;;;;;;;398.08;378.45;;;21.30;99.90;;;;;;5052091;28;20044;-69
2023/06/08 07:46:10;;;;;;;396.58;377.30;;;21.10;99.90;;;;;;5054463;28;20519;-69
2023/06/08 07:48:35;;;;;;;385.13;366.15;;;21.10;99.90;;;;;;5063000;28;20093;-69
2023/06/08 07:51:01;;;;;;;304.70;289.73;;;21.10;99.90;;;;;;5065706;28;20407;-70
2023/06/08 07:53:34;;;;;;;432.48;411.00;;;21.20;99.90;;;;;;5061185;28;20044;-70
2023/06/08 07:56:00;;;;;;;413.35;392.70;;;21.40;99.90;;;;;;5054783;28;20044;-70
2023/06/08 07:58:26;;;;;;;368.25;350.58;;;21.50;99.90;;;;;;5070127;28;20040;-70
2023/06/08 08:00:52;;;;;;;403.00;382.65;;;21.40;99.90;;;;;;5050837;28;20040;-70
2023/06/08 08:03:17;;;;;;;422.30;401.38;;;21.30;99.90;;;;;;5055808;28;20048;-70
2023/06/08 08:05:43;;;;;;;418.45;397.45;;;21.40;99.90;;;;;;5063233;28;20044;-70
2023/06/08 08:08:08;;;;;;;433.33;411.55;;;21.50;99.90;;;;;;5066344;28;20051;-69
2023/06/08 08:10:34;;;;;;;511.38;484.33;;;21.50;99.90;;;;;;5063798;28;20415;-70
2023/06/08 08:13:00;;;;;;;497.70;470.98;;;21.40;99.90;;;;;;5063855;28;20306;-70
2023/06/08 08:15:26;;;;;;;512.33;484.67;;;21.40;99.90;;;;;;5052350;28;20072;-69
2023/06/08 08:17:52;;;;;;;496.30;469.80;;;21.20;99.90;;;;;;5061957;28;20055;-71
2023/06/08 08:20:18;;;;;;;517.95;490.17;;;21.30;99.90;;;;;;5067614;28;20130;-69
2023/06/08 08:22:44;;;;;;;426.63;404.60;;;21.30;99.90;;;;;;5064127;28;20122;-69
2023/06/08 08:25:09;;;;;;;513.92;485.88;;;21.40;99.70;;;;;;5051303;28;20587;-69
2023/06/08 08:27:35;;;;;;;474.48;449.60;;;21.30;99.80;;;;;;5072234;28;20043;-70
2023/06/08 08:30:01;;;;;;;557.72;526.78;;;21.30;99.50;;;;;;5091363;28;20063;-70
2023/06/08 08:32:27;;;;;;;460.92;437.02;;;21.10;99.50;;;;;;5084987;28;20044;-70
2023/06/08 08:34:53;;;;;;;528.35;499.70;;;21.10;99.90;;;;;;5091903;28;20513;-69
2023/06/08 08:37:18;;;;;;;541.20;511.75;;;21.20;99.90;;;;;;5071801;28;20035;-70
2023/06/08 08:39:44;;;;;;;496.67;470.65;;;21.40;99.90;;;;;;5068870;28;20130;-70
2023/06/08 08:42:13;;;;;;;527.22;498.45;;;21.50;99.90;;;;;;5085093;28;20146;-70
2023/06/08 08:44:39;;;;;;;564.88;533.78;;;21.50;99.90;;;;;;5065532;28;20048;-69
2023/06/08 08:47:05;;;;;;;350.90;333.35;;;21.50;99.90;;;;;;5088995;28;20039;-70
2023/06/08 08:49:36;;;;;;;536.35;507.52;;;21.50;99.40;;;;;;5080235;28;20495;-70
2023/06/08 08:52:02;;;;;;;352.02;334.90;;;21.50;99.90;;;;;;5088330;28;20043;-70
2023/06/08 08:54:33;;;;;;;370.70;351.77;;;21.70;99.60;;;;;;5087221;28;20094;-70
2023/06/08 08:57:00;;;;;;;360.27;342.35;;;21.80;99.50;;;;;;5074002;28;20456;-70
2023/06/08 08:59:29;;;;;;;567.53;536.00;;;22.00;99.10;;;;;;5070683;28;20503;-70
2023/06/08 09:01:55;;;;;;;624.03;586.80;;;22.00;98.90;;;;;;5083527;28;20042;-69
2023/06/08 09:04:26;;;;;;;599.25;564.42;;;21.80;99.30;;;;;;5088891;28;20047;-70
2023/06/08 09:06:51;;;;;;;482.83;457.02;;;21.80;99.60;;;;;;5064820;28;20043;-71
2023/06/08 09:09:17;;;;;;;344.17;326.15;;;21.80;99.20;;;;;;5084899;28;20047;-70
2023/06/08 09:12:00;;;;;;;554.67;523.88;;;21.80;98.90;;;;;;5071364;28;20043;-70
2023/06/08 09:14:27;;;;;;;549.38;519.17;;;21.90;99.40;;;;;;5068953;28;20082;-70
2023/06/08 09:16:53;;;;;;;543.50;513.30;;;22.00;99.50;;;;;;5074338;28;20035;-69
2023/06/08 09:19:19;;;;;;;472.58;446.80;;;22.10;99.20;;;;;;5088065;28;20387;-70
2023/06/08 09:21:45;;;;;;;514.50;486.05;;;22.10;99.00;;;;;;5084342;28;20376;-70
2023/06/08 09:24:14;;;;;;;452.83;429.02;;;22.20;98.80;;;;;;5060921;28;20043;-69
2023/06/08 09:26:48;;;;;;;359.95;341.35;;;22.20;99.20;;;;;;5100850;27;20054;-69
2023/06/08 09:29:40;;;;;;;547.25;516.95;;;22.30;99.10;;;;;;5094601;28;20083;-70
2023/06/08 09:32:08;;;;;;;221.75;210.48;;;22.40;99.50;;;;;;5072999;28;20036;-69
2023/06/08 09:35:01;;;;;;;357.33;339.52;;;22.50;98.60;;;;;;5097801;28;20582;-70
2023/06/08 09:37:33;;;;;;;64.93;61.08;;;22.50;98.10;;;;;;5064593;28;20095;-70
2023/06/08 09:40:00;;;;;;;179.23;170.45;;;22.60;98.00;;;;;;5066259;27;20047;-69
2023/06/08 09:42:50;;;;;;;58.17;54.92;;;22.50;98.10;;;;;;5090149;27;20436;-69
2023/06/08 09:45:17;;;;;;;54.78;51.75;;;22.40;97.30;;;;;;5072812;28;20633;-69
2023/06/08 09:47:43;;;;;;;79.13;74.95;;;22.40;97.30;;;;;;5073027;28;20035;-69
2023/06/08 09:50:10;;;;;;;125.72;118.85;;;22.30;97.90;;;;;;5092241;28;20047;-69
2023/06/08 09:52:37;;;;;;;149.13;141.45;;;22.50;98.30;;;;;;5091455;28;20525;-70
2023/06/08 09:55:04;;;;;;;54.50;51.47;;;22.50;98.30;;;;;;5072221;27;20044;-70
2023/06/08 09:57:35;;;;;;;54.80;51.95;;;22.40;96.90;;;;;;5082116;28;20066;-70
2023/06/08 10:00:15;;;;;;;120.25;114.07;;;22.40;97.80;;;;;;5071707;28;20074;-70
2023/06/08 10:02:49;;;;;;;58.53;55.53;;;22.40;97.50;;;;;;5074326;28;20043;-70
2023/06/08 10:05:17;;;;;;;72.65;68.93;;;22.40;97.00;;;;;;5081972;28;20044;-69
2023/06/08 10:07:47;;;;;;;61.72;58.22;;;22.40;97.60;;;;;;5072163;28;20077;-70
2023/06/08 10:10:20;;;;;;;52.67;49.63;;;22.30;97.30;;;;;;5070028;28;20376;-70
2023/06/08 10:12:46;;;;;;;59.00;55.73;;;22.30;97.90;;;;;;5067751;28;20123;-69
2023/06/08 10:15:12;;;;;;;89.03;84.18;;;22.40;97.80;;;;;;5089202;27;20093;-69
2023/06/08 10:17:39;;;;;;;70.70;67.20;;;22.40;97.70;;;;;;5077891;28;20044;-70
2023/06/08 10:20:05;;;;;;;77.13;73.03;;;22.20;96.70;;;;;;5070294;27;20087;-70
2023/06/08 10:22:32;;;;;;;81.57;77.55;;;22.00;97.40;;;;;;5087359;28;20046;-69
2023/06/08 10:24:58;;;;;;;85.72;81.43;;;22.10;98.10;;;;;;5083783;28;20084;-70
2023/06/08 10:27:23;;;;;;;61.55;57.90;;;22.20;98.40;;;;;;5059745;28;20083;-69
2023/06/08 10:29:58;;;;;;;58.88;55.47;;;22.30;98.00;;;;;;5083898;28;20476;-69
2023/06/08 10:32:39;;;;;;;94.30;89.30;;;22.30;97.80;;;;;;5077185;28;20036;-69
2023/06/08 10:35:06;;;;;;;113.10;107.10;;;22.20;98.00;;;;;;5084369;28;20686;-69
2023/06/08 10:37:34;;;;;;;386.27;363.58;;;22.00;98.60;;;;;;5070322;28;20063;-69
2023/06/08 10:40:08;;;;;;;44.75;42.22;;;22.10;99.10;;;;;;5066216;27;20039;-69
2023/06/08 10:42:34;;;;;;;119.10;112.18;;;22.10;98.20;;;;;;5078758;27;20044;-68
2023/06/08 10:45:01;;;;;;;89.72;85.05;;;22.30;97.50;;;;;;5076875;28;20400;-70
2023/06/08 10:47:31;;;;;;;169.55;161.05;;;22.20;98.10;;;;;;5087476;28;20051;-70
2023/06/08 10:50:02;;;;;;;46.22;43.75;;;22.10;98.40;;;;;;5087640;27;20062;-70
2023/06/08 10:52:29;;;;;;;119.05;113.10;;;22.00;97.60;;;;;;5086754;28;20032;-69
2023/06/08 10:54:57;;;;;;;52.00;48.70;;;22.00;98.60;;;;;;5088113;28;20035;-69
2023/06/08 10:57:50;;;;;;;65.13;61.20;;;22.00;98.30;;;;;;5088749;28;20036;-69
2023/06/08 11:00:31;;;;;;;228.82;215.15;;;22.00;97.80;;;;;;5082718;28;20053;-69
2023/06/08 11:03:05;;;;;;;119.13;112.45;;;21.80;99.70;;;;;;5084658;28;20560;-69
2023/06/08 11:05:35;;;;;;;54.53;51.53;;;21.90;97.80;;;;;;5069175;28;20043;-69
2023/06/08 11:08:01;;;;;;;47.60;44.40;;;21.70;98.40;;;;;;5087698;28;20132;-69
2023/06/08 11:10:30;;;;;;;78.47;74.25;;;21.80;98.70;;;;;;5080615;28;20042;-69
2023/06/08 11:13:04;;;;;;;44.72;42.08;;;21.90;98.30;;;;;;5075919;28;20046;-69
2023/06/08 11:15:31;;;;;;;414.63;392.90;;;21.90;99.00;;;;;;5087634;28;20050;-69
2023/06/08 11:17:57;;;;;;;146.88;139.25;;;22.00;98.60;;;;;;5116739;27;20044;-69
2023/06/08 11:20:27;;;;;;;59.97;56.55;;;22.10;99.00;;;;;;5063552;28;20049;-69
2023/06/08 11:22:53;;;;;;;213.20;201.52;;;22.10;98.30;;;;;;5089215;27;20042;-70
2023/06/08 11:25:20;;;;;;;408.92;384.63;;;22.20;98.60;;;;;;5072765;28;20516;-69
2023/06/08 11:27:46;;;;;;;213.30;202.25;;;21.00;99.90;;;;;;5094873;27;20039;-69
2023/06/08 11:30:20;;;;;;;350.42;328.77;;;18.80;99.90;;;;;;5085276;28;20044;-69
2023/06/08 11:32:47;;;;;;;432.43;406.07;;;17.40;99.90;;;;;;5084134;28;20036;-69
2023/06/08 11:35:13;;;;;;;201.15;190.00;;;16.60;99.90;;;;;;5068459;27;20089;-69
2023/06/08 11:37:41;;;;;;;124.15;116.10;;;16.10;99.90;;;;;;5087996;27;20039;-69
2023/06/08 11:40:14;;;;;;;154.63;144.82;;;15.80;99.90;;;;;;5088768;28;20039;-70
2023/06/08 11:42:40;;;;;;;150.13;140.68;;;15.70;99.90;;;;;;5073096;28;20035;-69
2023/06/08 11:45:08;;;;;;;241.90;226.15;;;15.60;99.90;;;;;;5086217;28;20040;-69
2023/06/08 11:47:34;;;;;;;255.95;242.75;;;15.70;99.90;;;;;;5087813;28;20042;-68
2023/06/08 11:50:03;;;;;;;366.70;339.67;;;15.90;99.90;;;;;;5071973;28;20268;-70
2023/06/08 11:52:34;;;;;;;282.23;264.65;;;15.90;99.90;;;;;;5075363;27;20597;-69
2023/06/08 11:55:15;;;;;;;280.60;263.70;;;15.70;99.90;;;;;;5080951;28;20048;-69
2023/06/08 11:57:45;;;;;;;258.27;241.55;;;15.70;99.90;;;;;;5065342;28;20171;-69
2023/06/08 12:00:12;;;;;;;238.70;223.27;;;15.80;99.90;;;;;;5062227;28;20043;-69
2023/06/08 12:02:38;;;;;;;344.17;325.42;;;15.60;99.90;;;;;;5070836;28;20068;-69
2023/06/08 12:05:06;;;;;;;309.92;292.77;;;15.70;99.90;;;;;;5084610;28;20054;-69
2023/06/08 12:07:35;;;;;;;232.38;221.07;;;15.80;99.90;;;;;;5070612;28;20065;-69
2023/06/08 12:10:01;;;;;;;251.43;239.55;;;15.70;99.90;;;;;;5080716;28;20035;-69
2023/06/08 12:12:30;;;;;;;254.63;242.35;;;15.60;99.90;;;;;;5084394;28;20064;-70
2023/06/08 12:14:57;;;;;;;279.42;266.25;;;15.80;99.90;;;;;;5088685;28;20720;-69